createdAt,value
2024-04-01T00:00:20.074Z,16.95
2024-04-01T00:01:21.103Z,16.97
2024-04-01T00:02:21.962Z,16.47
2024-04-01T00:03:22.824Z,15.63
2024-04-01T00:04:23.669Z,16.67
2024-04-01T00:05:24.513Z,16.68
2024-04-01T00:06:25.350Z,16.37
2024-04-01T00:07:26.205Z,15.53
2024-04-01T00:08:27.317Z,16.77
2024-04-01T00:09:28.158Z,15.93
2024-04-01T00:10:28.988Z,16.65
2024-04-01T00:11:29.842Z,16.90
2024-04-01T00:12:30.696Z,16.72
2024-04-01T00:13:31.532Z,17.77
2024-04-01T00:14:32.386Z,18.33
2024-04-01T00:15:33.215Z,18.17
2024-04-01T00:16:34.077Z,18.42
2024-04-01T00:17:34.950Z,18.25
2024-04-01T00:18:35.798Z,16.63
2024-04-01T00:19:36.631Z,17.00
2024-04-01T00:20:37.689Z,17.17
2024-04-01T00:21:38.546Z,16.90
2024-04-01T00:22:39.385Z,16.25
2024-04-01T00:23:40.234Z,16.33
2024-04-01T00:24:41.065Z,17.42
2024-04-01T00:25:41.924Z,17.93
2024-04-01T00:26:43.818Z,17.53
2024-04-01T00:27:44.788Z,16.93
2024-04-01T00:28:45.632Z,18.10
2024-04-01T00:29:46.471Z,16.85
2024-04-01T00:30:47.315Z,17.43
2024-04-01T00:31:48.168Z,18.15
2024-04-01T00:32:49.003Z,18.12
2024-04-01T00:33:50.539Z,18.52
2024-04-01T00:34:54.049Z,17.45
2024-04-01T00:35:58.950Z,18.80
2024-04-01T00:36:59.842Z,19.05
2024-04-01T00:38:00.684Z,17.72
2024-04-01T00:39:01.735Z,18.78
2024-04-01T00:40:02.796Z,18.30
2024-04-01T00:41:03.744Z,17.85
2024-04-01T00:42:05.026Z,21.23
2024-04-01T00:43:09.252Z,19.60
2024-04-01T00:44:10.101Z,18.02
2024-04-01T00:45:10.942Z,18.92
2024-04-01T00:46:11.775Z,18.77
2024-04-01T00:47:12.636Z,18.55
2024-04-01T00:48:14.027Z,19.22
2024-04-01T00:49:16.498Z,19.62
2024-04-01T00:50:17.898Z,20.08
2024-04-01T00:51:19.088Z,19.97
2024-04-01T00:52:19.965Z,21.17
2024-04-01T00:53:20.898Z,19.12
2024-04-01T00:54:21.727Z,18.25
2024-04-01T00:55:22.663Z,18.62
2024-04-01T00:56:23.580Z,19.62
2024-04-01T00:57:24.483Z,19.32
2024-04-01T00:58:25.458Z,19.27
2024-04-01T00:59:26.295Z,20.07
2024-04-01T01:00:27.171Z,17.93
2024-04-01T01:01:28.016Z,18.47
2024-04-01T01:02:29.571Z,19.03
2024-04-01T01:03:30.441Z,18.58
2024-04-01T01:04:31.276Z,18.65
2024-04-01T01:05:32.318Z,19.10
2024-04-01T01:06:33.202Z,18.95
2024-04-01T01:07:34.032Z,18.25
2024-04-01T01:08:34.864Z,18.10
2024-04-01T01:09:36.503Z,17.92
2024-04-01T01:10:37.378Z,16.38
2024-04-01T01:11:38.901Z,17.77
2024-04-01T01:12:40.324Z,18.50
2024-04-01T01:13:41.163Z,17.03
2024-04-01T01:14:41.996Z,17.50
2024-04-01T01:15:42.834Z,17.82
2024-04-01T01:16:43.732Z,16.93
2024-04-01T01:17:45.610Z,17.88
2024-04-01T01:18:46.452Z,17.48
2024-04-01T01:19:47.288Z,17.47
2024-04-01T01:20:48.160Z,18.33
2024-04-01T01:21:48.998Z,17.63
2024-04-01T01:22:49.832Z,17.10
2024-04-01T01:23:50.695Z,16.50
2024-04-01T01:24:51.528Z,18.65
2024-04-01T01:25:52.378Z,17.30
2024-04-01T01:26:55.577Z,18.08
2024-04-01T01:27:56.428Z,20.60
2024-04-01T01:28:58.628Z,18.62
2024-04-01T01:30:04.202Z,18.53
2024-04-01T01:31:05.275Z,18.17
2024-04-01T01:32:06.251Z,18.02
2024-04-01T01:33:07.211Z,17.87
2024-04-01T01:34:08.048Z,17.90
2024-04-01T01:35:09.205Z,17.67
2024-04-01T01:36:10.062Z,17.68
2024-04-01T01:37:10.916Z,18.32
2024-04-01T01:38:13.139Z,17.98
2024-04-01T01:39:13.980Z,17.55
2024-04-01T01:40:14.867Z,17.30
2024-04-01T01:41:15.699Z,16.15
2024-04-01T01:42:16.540Z,15.77
2024-04-01T01:43:17.418Z,15.45
2024-04-01T01:44:18.253Z,17.12
2024-04-01T01:45:19.112Z,17.50
2024-04-01T01:46:19.958Z,15.80
2024-04-01T01:47:20.800Z,16.08
2024-04-01T01:48:21.631Z,16.83
2024-04-01T01:49:23.873Z,16.70
2024-04-01T01:50:24.774Z,16.65
2024-04-01T01:51:27.190Z,16.90
2024-04-01T01:52:28.025Z,16.97
2024-04-01T01:53:28.878Z,16.60
2024-04-01T01:54:29.727Z,15.78
2024-04-01T01:55:30.570Z,14.65
2024-04-01T01:56:32.047Z,15.70
2024-04-01T01:57:33.176Z,16.37
2024-04-01T01:58:34.052Z,16.82
2024-04-01T01:59:34.931Z,15.90
2024-04-01T02:00:35.766Z,15.27
2024-04-01T02:01:36.612Z,15.43
2024-04-01T02:02:37.448Z,14.62
2024-04-01T02:03:38.338Z,15.97
2024-04-01T02:04:39.264Z,16.27
2024-04-01T02:05:41.887Z,15.00
2024-04-01T02:06:42.779Z,15.20
2024-04-01T02:07:43.630Z,14.37
2024-04-01T02:08:44.461Z,14.48
2024-04-01T02:09:45.304Z,14.65
2024-04-01T02:10:56.123Z,15.68
2024-04-01T02:11:57.668Z,14.90
2024-04-01T02:12:58.533Z,13.73
2024-04-01T02:13:59.458Z,14.83
2024-04-01T02:15:00.319Z,15.17
2024-04-01T02:16:07.909Z,14.57
2024-04-01T02:17:08.819Z,12.77
2024-04-01T02:18:09.678Z,12.38
2024-04-01T02:19:10.515Z,14.00
2024-04-01T02:20:16.069Z,12.80
2024-04-01T02:21:18.651Z,13.48
2024-04-01T02:22:22.799Z,13.10
2024-04-01T02:23:29.581Z,14.18
2024-04-01T02:24:30.413Z,13.50
2024-04-01T02:25:34.075Z,12.65
2024-04-01T02:26:34.999Z,12.82
2024-04-01T02:27:35.837Z,13.77
2024-04-01T02:28:36.668Z,13.98
2024-04-01T02:29:37.912Z,13.10
2024-04-01T02:30:38.762Z,12.45
2024-04-01T02:31:39.599Z,12.52
2024-04-01T02:32:40.601Z,12.08
2024-04-01T02:33:41.432Z,12.70
2024-04-01T02:34:42.269Z,13.88
2024-04-01T02:35:43.153Z,14.05
2024-04-01T02:36:43.988Z,13.07
2024-04-01T02:37:44.832Z,12.73
2024-04-01T02:38:48.717Z,13.47
2024-04-01T02:39:49.550Z,12.20
2024-04-01T02:40:50.405Z,11.90
2024-04-01T02:41:51.548Z,12.53
2024-04-01T02:42:52.388Z,12.13
2024-04-01T02:43:53.240Z,12.65
2024-04-01T02:44:54.113Z,12.67
2024-04-01T02:45:54.957Z,12.28
2024-04-01T02:46:55.793Z,12.62
2024-04-01T02:47:56.736Z,12.73
2024-04-01T02:48:57.571Z,12.47
2024-04-01T02:49:58.565Z,13.00
2024-04-01T02:50:59.401Z,12.95
2024-04-01T02:52:00.229Z,12.25
2024-04-01T02:53:01.145Z,12.58
2024-04-01T02:54:02.092Z,12.83
2024-04-01T02:55:03.079Z,12.23
2024-04-01T02:56:07.019Z,11.62
2024-04-01T02:57:08.758Z,11.98
2024-04-01T02:58:09.709Z,12.95
2024-04-01T02:59:10.558Z,12.33
2024-04-01T03:00:17.703Z,11.50
2024-04-01T03:01:18.582Z,12.70
2024-04-01T03:02:19.414Z,12.37
2024-04-01T03:03:20.605Z,12.18
2024-04-01T03:04:21.473Z,11.22
2024-04-01T03:05:22.311Z,12.05
2024-04-01T03:06:23.144Z,12.25
2024-04-01T03:07:23.979Z,11.02
2024-04-01T03:08:25.295Z,12.12
2024-04-01T03:09:26.137Z,13.22
2024-04-01T03:10:27.051Z,11.50
2024-04-01T03:11:27.912Z,11.87
2024-04-01T03:12:28.821Z,11.38
2024-04-01T03:13:29.729Z,11.60
2024-04-01T03:14:30.580Z,12.00
2024-04-01T03:15:31.531Z,11.65
2024-04-01T03:16:32.386Z,11.12
2024-04-01T03:17:33.245Z,11.27
2024-04-01T03:18:34.114Z,12.28
2024-04-01T03:19:34.948Z,11.98
2024-04-01T03:20:35.782Z,10.93
2024-04-01T03:21:36.618Z,10.83
2024-04-01T03:22:37.479Z,10.98
2024-04-01T03:23:38.323Z,11.27
2024-04-01T03:24:39.162Z,10.60
2024-04-01T03:25:40.062Z,11.08
2024-04-01T03:26:40.910Z,11.45
2024-04-01T03:27:42.726Z,11.03
2024-04-01T03:28:44.240Z,11.92
2024-04-01T03:29:45.077Z,12.08
2024-04-01T03:30:46.536Z,11.78
2024-04-01T03:31:47.372Z,10.75
2024-04-01T03:32:48.240Z,11.53
2024-04-01T03:33:49.076Z,11.25
2024-04-01T03:34:50.358Z,10.50
2024-04-01T03:35:56.962Z,10.63
2024-04-01T03:36:59.633Z,10.62
2024-04-01T03:38:00.586Z,10.32
2024-04-01T03:39:01.669Z,10.73
2024-04-01T03:40:02.670Z,9.75
2024-04-01T03:41:03.626Z,10.38
2024-04-01T03:42:04.533Z,11.02
2024-04-01T03:43:08.524Z,11.73
2024-04-01T03:44:09.365Z,10.80
2024-04-01T03:45:10.191Z,11.73
2024-04-01T03:46:11.053Z,11.38
2024-04-01T03:47:11.894Z,10.62
2024-04-01T03:48:12.773Z,10.42
2024-04-01T03:49:13.635Z,10.58
2024-04-01T03:50:14.500Z,10.57
2024-04-01T03:51:15.676Z,10.38
2024-04-01T03:52:16.505Z,11.22
2024-04-01T03:53:17.499Z,11.18
2024-04-01T03:54:18.362Z,11.73
2024-04-01T03:55:19.290Z,11.53
2024-04-01T03:56:20.148Z,12.77
2024-04-01T03:57:20.985Z,11.48
2024-04-01T03:58:21.829Z,10.78
2024-04-01T03:59:22.674Z,10.37
2024-04-01T04:00:23.544Z,11.03
2024-04-01T04:01:24.642Z,10.72
2024-04-01T04:02:25.514Z,10.18
2024-04-01T04:03:26.372Z,10.73
2024-04-01T04:04:27.251Z,10.80
2024-04-01T04:05:28.279Z,10.37
2024-04-01T04:06:29.142Z,10.87
2024-04-01T04:07:29.977Z,11.68
2024-04-01T04:08:30.821Z,11.33
2024-04-01T04:09:31.678Z,11.65
2024-04-01T04:10:32.520Z,11.58
2024-04-01T04:11:33.718Z,11.27
2024-04-01T04:12:34.548Z,12.20
2024-04-01T04:13:35.420Z,10.53
2024-04-01T04:14:36.287Z,10.65
2024-04-01T04:15:37.151Z,11.13
2024-04-01T04:16:38.062Z,11.70
2024-04-01T04:17:38.900Z,10.58
2024-04-01T04:18:39.755Z,10.72
2024-04-01T04:19:40.591Z,11.18
2024-04-01T04:20:41.430Z,12.35
2024-04-01T04:21:42.306Z,10.90
2024-04-01T04:22:45.091Z,11.03
2024-04-01T04:23:45.957Z,11.23
2024-04-01T04:24:47.039Z,11.58
2024-04-01T04:25:47.886Z,11.23
2024-04-01T04:26:48.852Z,11.03
2024-04-01T04:27:49.720Z,10.83
2024-04-01T04:28:50.702Z,11.22
2024-04-01T04:29:51.563Z,11.52
2024-04-01T04:30:52.423Z,11.07
2024-04-01T04:31:54.512Z,10.77
2024-04-01T04:32:55.369Z,11.05
2024-04-01T04:33:56.291Z,11.83
2024-04-01T04:34:57.142Z,11.23
2024-04-01T04:35:58.274Z,11.45
2024-04-01T04:36:59.249Z,11.23
2024-04-01T04:38:02.128Z,11.32
2024-04-01T04:39:19.441Z,11.12
2024-04-01T04:40:20.502Z,11.20
2024-04-01T04:41:22.380Z,11.25
2024-04-01T04:42:23.230Z,11.77
2024-04-01T04:43:24.067Z,11.73
2024-04-01T04:44:24.900Z,11.23
2024-04-01T04:45:26.000Z,10.62
2024-04-01T04:46:26.889Z,10.13
2024-04-01T04:47:27.777Z,10.82
2024-04-01T04:48:28.878Z,10.15
2024-04-01T04:49:29.722Z,10.42
2024-04-01T04:50:31.669Z,10.95
2024-04-01T04:51:33.632Z,10.88
2024-04-01T04:52:34.472Z,11.12
2024-04-01T04:53:35.985Z,10.65
2024-04-01T04:54:37.270Z,11.62
2024-04-01T04:55:40.173Z,11.30
2024-04-01T04:56:41.011Z,10.92
2024-04-01T04:57:42.277Z,10.60
2024-04-01T04:58:43.112Z,11.03
2024-04-01T04:59:43.957Z,10.53
2024-04-01T05:00:44.820Z,9.90
2024-04-01T05:01:45.656Z,11.18
2024-04-01T05:02:47.788Z,11.30
2024-04-01T05:03:48.675Z,11.38
2024-04-01T05:04:50.052Z,10.13
2024-04-01T05:05:50.947Z,10.33
2024-04-01T05:06:51.784Z,11.47
2024-04-01T05:07:52.619Z,11.80
2024-04-01T05:08:53.562Z,11.52
2024-04-01T05:09:54.427Z,10.63
2024-04-01T05:10:56.336Z,10.78
2024-04-01T05:11:57.269Z,11.13
2024-04-01T05:12:58.198Z,10.73
2024-04-01T05:13:59.099Z,9.92
2024-04-01T05:14:59.940Z,10.67
2024-04-01T05:16:01.008Z,11.12
2024-04-01T05:17:01.853Z,11.28
2024-04-01T05:18:03.679Z,10.72
2024-04-01T05:19:07.458Z,10.80
2024-04-01T05:20:13.791Z,11.00
2024-04-01T05:21:14.635Z,11.85
2024-04-01T05:22:15.465Z,10.95
2024-04-01T05:23:16.298Z,9.93
2024-04-01T05:24:17.778Z,10.75
2024-04-01T05:25:18.709Z,10.50
2024-04-01T05:26:20.241Z,10.57
2024-04-01T05:27:21.651Z,10.43
2024-04-01T05:28:22.693Z,10.82
2024-04-01T05:29:23.531Z,11.12
2024-04-01T05:30:24.371Z,10.73
2024-04-01T05:31:25.237Z,9.87
2024-04-01T05:32:26.086Z,9.45
2024-04-01T05:33:33.266Z,11.43
2024-04-01T05:34:37.768Z,10.55
2024-04-01T05:35:38.606Z,10.87
2024-04-01T05:36:39.456Z,10.37
2024-04-01T05:37:41.388Z,11.00
2024-04-01T05:38:42.273Z,9.87
2024-04-01T05:39:43.120Z,10.35
2024-04-01T05:40:44.111Z,10.55
2024-04-01T05:41:44.953Z,10.18
2024-04-01T05:42:45.822Z,10.08
2024-04-01T05:43:46.667Z,10.73
2024-04-01T05:44:47.846Z,10.42
2024-04-01T05:45:50.054Z,10.42
2024-04-01T05:46:51.306Z,9.78
2024-04-01T05:47:52.818Z,10.17
2024-04-01T05:48:53.697Z,10.28
2024-04-01T05:49:54.541Z,10.43
2024-04-01T05:50:55.379Z,11.12
2024-04-01T05:51:56.240Z,10.22
2024-04-01T05:52:57.114Z,10.38
2024-04-01T05:53:57.963Z,10.70
2024-04-01T05:54:58.809Z,9.93
2024-04-01T05:56:03.486Z,10.48
2024-04-01T05:57:04.361Z,10.60
2024-04-01T05:58:05.197Z,9.95
2024-04-01T05:59:06.037Z,10.32
2024-04-01T06:00:08.347Z,10.03
2024-04-01T06:01:11.691Z,9.92
2024-04-01T06:02:12.531Z,10.20
2024-04-01T06:03:13.412Z,10.12
2024-04-01T06:04:14.272Z,10.45
2024-04-01T06:05:15.354Z,10.45
2024-04-01T06:06:16.201Z,10.50
2024-04-01T06:07:17.039Z,10.80
2024-04-01T06:08:17.873Z,10.77
2024-04-01T06:09:18.729Z,10.48
2024-04-01T06:10:20.052Z,10.07
2024-04-01T06:11:20.891Z,10.45
2024-04-01T06:12:21.716Z,9.83
2024-04-01T06:13:22.547Z,10.12
2024-04-01T06:14:23.383Z,10.95
2024-04-01T06:15:24.255Z,11.63
2024-04-01T06:16:26.157Z,11.00
2024-04-01T06:17:27.036Z,11.48
2024-04-01T06:18:27.903Z,10.97
2024-04-01T06:19:28.822Z,10.70
2024-04-01T06:20:30.146Z,10.28
2024-04-01T06:21:32.586Z,10.68
2024-04-01T06:22:33.576Z,10.33
2024-04-01T06:23:34.428Z,10.53
2024-04-01T06:24:35.282Z,10.62
2024-04-01T06:25:39.921Z,10.28
2024-04-01T06:26:40.778Z,10.28
2024-04-01T06:27:41.612Z,10.80
2024-04-01T06:28:44.551Z,10.50
2024-04-01T06:29:45.407Z,11.83
2024-04-01T06:30:47.974Z,11.55
2024-04-01T06:31:48.842Z,10.55
2024-04-01T06:32:49.714Z,9.88
2024-04-01T06:33:50.572Z,11.10
2024-04-01T06:34:54.172Z,10.47
2024-04-01T06:36:22.745Z,10.08
2024-04-01T06:37:23.595Z,10.28
2024-04-01T06:38:24.428Z,9.78
2024-04-01T06:39:25.288Z,11.10
2024-04-01T06:40:26.253Z,10.87
2024-04-01T06:41:27.528Z,10.32
2024-04-01T06:42:28.412Z,11.02
2024-04-01T06:43:29.563Z,11.22
2024-04-01T06:44:30.478Z,11.55
2024-04-01T06:45:31.317Z,11.32
2024-04-01T06:46:32.158Z,11.77
2024-04-01T06:47:33.030Z,10.55
2024-04-01T06:48:34.865Z,11.18
2024-04-01T06:49:35.727Z,10.67
2024-04-01T06:50:36.586Z,12.10
2024-04-01T06:51:37.432Z,13.42
2024-04-01T06:52:38.294Z,13.17
2024-04-01T06:53:39.201Z,10.93
2024-04-01T06:54:40.210Z,11.03
2024-04-01T06:55:41.053Z,12.55
2024-04-01T06:56:41.892Z,12.27
2024-04-01T06:57:43.687Z,11.88
2024-04-01T06:58:44.548Z,11.77
2024-04-01T06:59:45.386Z,11.12
2024-04-01T07:00:46.221Z,11.87
2024-04-01T07:01:47.059Z,12.67
2024-04-01T07:02:47.927Z,13.12
2024-04-01T07:03:48.843Z,12.52
2024-04-01T07:04:49.691Z,12.62
2024-04-01T07:05:50.552Z,13.02
2024-04-01T07:06:51.408Z,12.65
2024-04-01T07:07:52.246Z,12.37
2024-04-01T07:08:53.087Z,12.87
2024-04-01T07:09:53.937Z,11.82
2024-04-01T07:10:54.837Z,11.25
2024-04-01T07:11:55.686Z,12.25
2024-04-01T07:12:56.520Z,13.03
2024-04-01T07:13:57.365Z,13.67
2024-04-01T07:14:58.205Z,13.20
2024-04-01T07:15:59.081Z,13.78
2024-04-01T07:17:01.387Z,13.22
2024-04-01T07:18:02.221Z,13.20
2024-04-01T07:19:03.071Z,12.90
2024-04-01T07:20:05.044Z,12.78
2024-04-01T07:21:05.915Z,14.45
2024-04-01T07:22:06.757Z,14.52
2024-04-01T07:23:07.598Z,14.00
2024-04-01T07:24:08.472Z,13.25
2024-04-01T07:25:09.337Z,13.55
2024-04-01T07:26:10.221Z,14.70
2024-04-01T07:27:11.051Z,15.02
2024-04-01T07:28:11.930Z,14.33
2024-04-01T07:29:15.606Z,14.42
2024-04-01T07:30:16.554Z,14.02
2024-04-01T07:31:17.418Z,13.43
2024-04-01T07:32:18.379Z,15.42
2024-04-01T07:33:19.260Z,13.30
2024-04-01T07:34:20.130Z,14.07
2024-04-01T07:35:20.974Z,13.85
2024-04-01T07:36:21.837Z,13.95
2024-04-01T07:37:22.768Z,14.33
2024-04-01T07:38:23.598Z,14.05
2024-04-01T07:39:24.492Z,14.52
2024-04-01T07:40:26.425Z,14.07
2024-04-01T07:41:27.268Z,13.08
2024-04-01T07:42:28.112Z,13.87
2024-04-01T07:43:28.982Z,14.75
2024-04-01T07:44:29.846Z,14.20
2024-04-01T07:45:30.707Z,14.17
2024-04-01T07:46:31.589Z,14.78
2024-04-01T07:47:32.559Z,14.17
2024-04-01T07:48:33.393Z,14.80
2024-04-01T07:49:34.628Z,14.98
2024-04-01T07:50:35.459Z,13.82
2024-04-01T07:51:36.324Z,13.97
2024-04-01T07:52:37.650Z,15.35
2024-04-01T07:53:38.538Z,14.63
2024-04-01T07:54:39.377Z,14.10
2024-04-01T07:55:40.228Z,15.45
2024-04-01T07:56:41.066Z,15.32
2024-04-01T07:57:41.906Z,15.08
2024-04-01T07:58:42.775Z,14.87
2024-04-01T07:59:44.118Z,13.40
2024-04-01T08:00:44.960Z,14.05
2024-04-01T08:01:45.802Z,14.10
2024-04-01T08:02:46.658Z,13.62
2024-04-01T08:03:47.494Z,14.58
2024-04-01T08:04:48.839Z,14.57
2024-04-01T08:05:50.531Z,16.65
2024-04-01T08:06:51.393Z,19.10
2024-04-01T08:07:52.236Z,17.05
2024-04-01T08:08:53.088Z,16.88
2024-04-01T08:09:53.922Z,16.68
2024-04-01T08:10:54.757Z,15.92
2024-04-01T08:11:55.622Z,15.63
2024-04-01T08:12:56.469Z,16.90
2024-04-01T08:13:57.312Z,18.43
2024-04-01T08:14:58.163Z,17.15
2024-04-01T08:16:02.399Z,17.53
2024-04-01T08:17:03.978Z,17.65
2024-04-01T08:18:04.950Z,19.02
2024-04-01T08:19:05.790Z,18.32
2024-04-01T08:20:08.457Z,19.23
2024-04-01T08:21:09.331Z,18.62
2024-04-01T08:22:10.230Z,18.78
2024-04-01T08:23:11.062Z,20.30
2024-04-01T08:24:12.164Z,19.60
2024-04-01T08:25:13.733Z,19.22
2024-04-01T08:26:14.579Z,18.68
2024-04-01T08:27:16.922Z,18.20
2024-04-01T08:28:17.876Z,18.60
2024-04-01T08:29:18.714Z,18.58
2024-04-01T08:30:19.546Z,19.25
2024-04-01T08:31:20.408Z,18.60
2024-04-01T08:32:21.242Z,19.58
2024-04-01T08:33:22.106Z,18.32
2024-04-01T08:34:23.631Z,18.78
2024-04-01T08:35:24.522Z,19.25
2024-04-01T08:36:25.378Z,19.27
2024-04-01T08:37:26.638Z,20.60
2024-04-01T08:38:27.962Z,20.35
2024-04-01T08:39:28.812Z,19.03
2024-04-01T08:40:31.830Z,20.35
2024-04-01T08:41:51.950Z,19.50
2024-04-01T08:42:55.260Z,19.75
2024-04-01T08:43:58.786Z,18.98
2024-04-01T08:44:59.640Z,22.07
2024-04-01T08:46:00.603Z,18.77
2024-04-01T08:47:01.530Z,19.92
2024-04-01T08:48:06.976Z,20.28
2024-04-01T08:49:10.989Z,21.07
2024-04-01T08:50:23.766Z,20.25
2024-04-01T08:51:25.237Z,21.17
2024-04-01T08:52:26.953Z,19.88
2024-04-01T08:53:33.511Z,20.88
2024-04-01T08:54:34.369Z,21.08
2024-04-01T08:55:35.220Z,20.45
2024-04-01T08:56:42.407Z,20.42
2024-04-01T08:57:44.815Z,21.70
2024-04-01T08:58:48.254Z,21.72
2024-04-01T08:59:49.768Z,22.35
2024-04-01T09:00:50.623Z,21.15
2024-04-01T09:01:51.468Z,20.02
2024-04-01T09:02:52.311Z,20.43
2024-04-01T09:03:53.414Z,20.45
2024-04-01T09:04:54.808Z,23.12
2024-04-01T09:05:57.792Z,21.45
2024-04-01T09:06:58.727Z,20.95
2024-04-01T09:07:59.574Z,21.97
2024-04-01T09:09:00.459Z,19.72
2024-04-01T09:10:01.291Z,21.43
2024-04-01T09:11:02.133Z,19.60
2024-04-01T09:12:03.140Z,19.47
2024-04-01T09:13:04.062Z,20.15
2024-04-01T09:14:05.744Z,21.27
2024-04-01T09:15:12.036Z,21.05
2024-04-01T09:16:12.871Z,20.58
2024-04-01T09:17:22.872Z,21.47
2024-04-01T09:18:23.746Z,21.48
2024-04-01T09:19:24.907Z,20.95
2024-04-01T09:20:25.780Z,21.48
2024-04-01T09:21:26.638Z,21.33
2024-04-01T09:22:27.493Z,22.83
2024-04-01T09:23:30.607Z,22.82
2024-04-01T09:24:33.928Z,23.48
2024-04-01T09:25:34.867Z,20.80
2024-04-01T09:26:35.759Z,21.05
2024-04-01T09:27:36.591Z,20.65
2024-04-01T09:28:37.458Z,20.55
2024-04-01T09:29:38.361Z,20.03
2024-04-01T09:30:39.209Z,23.40
2024-04-01T09:31:40.105Z,20.75
2024-04-01T09:32:40.951Z,20.90
2024-04-01T09:33:41.788Z,20.92
2024-04-01T09:34:42.865Z,19.73
2024-04-01T09:35:43.743Z,20.63
2024-04-01T09:36:44.597Z,20.93
2024-04-01T09:37:45.467Z,21.42
2024-04-01T09:38:46.579Z,21.70
2024-04-01T09:39:47.441Z,20.52
2024-04-01T09:40:51.765Z,21.28
2024-04-01T09:41:52.629Z,20.07
2024-04-01T09:42:57.660Z,21.08
2024-04-01T09:43:58.566Z,20.78
2024-04-01T09:44:59.670Z,21.75
2024-04-01T09:46:02.739Z,21.13
2024-04-01T09:47:05.080Z,22.22
2024-04-01T09:48:06.288Z,22.07
2024-04-01T09:49:07.132Z,21.52
2024-04-01T09:50:07.959Z,18.90
2024-04-01T09:51:08.829Z,20.75
2024-04-01T09:52:09.671Z,21.37
2024-04-01T09:53:10.510Z,21.90
2024-04-01T09:54:11.356Z,22.20
2024-04-01T09:55:21.469Z,22.05
2024-04-01T09:56:39.968Z,21.13
2024-04-01T09:58:18.233Z,20.62
2024-04-01T09:59:27.295Z,22.57
2024-04-01T10:00:38.347Z,22.60
2024-04-01T10:02:16.075Z,23.65
2024-04-01T10:03:38.217Z,22.78
2024-04-01T10:04:55.816Z,22.52
2024-04-01T10:06:14.435Z,22.30
2024-04-01T10:07:47.328Z,22.60
2024-04-01T10:09:15.594Z,21.75
2024-04-01T10:10:35.732Z,22.75
2024-04-01T10:11:56.285Z,22.28
2024-04-01T10:13:33.611Z,19.37
2024-04-01T10:15:20.603Z,20.30
2024-04-01T10:16:53.875Z,22.32
2024-04-01T10:18:35.603Z,19.88
2024-04-01T10:20:08.671Z,20.87
2024-04-01T10:21:20.910Z,21.70
2024-04-01T10:22:30.428Z,22.40
2024-04-01T10:23:55.574Z,21.92
2024-04-01T10:25:05.291Z,22.65
2024-04-01T10:26:43.246Z,22.88
2024-04-01T10:28:08.175Z,22.73
2024-04-01T10:29:46.028Z,20.38
2024-04-01T10:31:08.664Z,20.45
2024-04-01T10:32:15.211Z,21.77
2024-04-01T10:33:52.959Z,21.40
2024-04-01T10:35:20.850Z,21.72
2024-04-01T10:36:34.188Z,21.78
2024-04-01T10:37:51.436Z,20.32
2024-04-01T10:39:33.889Z,20.97
2024-04-01T10:40:53.099Z,21.87
2024-04-01T10:41:59.461Z,20.07
2024-04-01T10:43:29.057Z,20.75
2024-04-01T10:45:01.144Z,19.52
2024-04-01T10:46:04.684Z,21.10
2024-04-01T10:47:40.410Z,21.40
2024-04-01T10:49:23.261Z,20.55
2024-04-01T10:50:51.758Z,21.43
2024-04-01T10:52:21.731Z,20.30
2024-04-01T10:53:57.638Z,20.57
2024-04-01T10:55:08.301Z,20.95
2024-04-01T10:56:34.353Z,20.47
2024-04-01T10:57:59.421Z,21.22
2024-04-01T10:59:18.610Z,19.70
2024-04-01T11:00:52.809Z,19.30
2024-04-01T11:02:14.606Z,20.37
2024-04-01T11:03:24.184Z,20.73
2024-04-01T11:04:33.508Z,20.57
2024-04-01T11:06:11.619Z,20.80
2024-04-01T11:07:15.233Z,20.60
2024-04-01T11:08:29.099Z,21.60
2024-04-01T11:09:55.887Z,20.70
2024-04-01T11:11:15.295Z,19.50
2024-04-01T11:12:51.143Z,21.65
2024-04-01T11:13:52.017Z,21.45
2024-04-01T11:14:52.908Z,19.58
2024-04-01T11:15:55.433Z,20.77
2024-04-01T11:16:57.126Z,20.78
2024-04-01T11:18:22.345Z,18.77
2024-04-01T11:19:37.637Z,18.77
2024-04-01T11:20:44.480Z,20.33
2024-04-01T11:21:50.841Z,19.90
2024-04-01T11:23:01.295Z,20.20
2024-04-01T11:24:33.494Z,20.78
2024-04-01T11:26:11.064Z,21.37
2024-04-01T11:27:30.446Z,21.68
2024-04-01T11:29:08.343Z,21.15
2024-04-01T11:30:20.908Z,22.08
2024-04-01T11:31:23.796Z,20.48
2024-04-01T11:32:24.900Z,20.72
2024-04-01T11:33:27.125Z,20.20
2024-04-01T11:34:54.691Z,20.43
2024-04-01T11:35:55.528Z,19.78
2024-04-01T11:37:07.671Z,20.75
2024-04-01T11:38:26.940Z,20.23
2024-04-01T11:39:27.773Z,20.88
2024-04-01T11:40:32.828Z,20.25
2024-04-01T11:41:34.394Z,20.78
2024-04-01T11:42:38.934Z,20.43
2024-04-01T11:43:41.069Z,20.20
2024-04-01T11:44:46.250Z,22.55
2024-04-01T11:45:47.798Z,21.05
2024-04-01T11:46:48.674Z,21.72
2024-04-01T11:47:49.528Z,21.25
2024-04-01T11:48:56.347Z,20.65
2024-04-01T11:49:57.229Z,20.15
2024-04-01T11:50:58.410Z,20.65
2024-04-01T11:51:59.305Z,22.30
2024-04-01T11:53:05.303Z,22.10
2024-04-01T11:54:08.727Z,21.35
2024-04-01T11:55:12.861Z,20.98
2024-04-01T11:56:13.705Z,20.60
2024-04-01T11:57:23.724Z,22.75
2024-04-01T11:58:25.190Z,22.37
2024-04-01T11:59:29.847Z,20.30
2024-04-01T12:00:30.889Z,20.98
2024-04-01T12:01:32.330Z,20.70
2024-04-01T12:02:34.137Z,19.22
2024-04-01T12:03:39.461Z,20.83
2024-04-01T12:04:40.319Z,21.92
2024-04-01T12:05:51.571Z,20.05
2024-04-01T12:06:52.411Z,20.87
2024-04-01T12:07:53.245Z,19.93
2024-04-01T12:08:54.088Z,21.48
2024-04-01T12:09:54.920Z,20.85
2024-04-01T12:10:58.134Z,20.92
2024-04-01T12:11:59.778Z,21.33
2024-04-01T12:13:00.638Z,22.12
2024-04-01T12:14:05.028Z,21.07
2024-04-01T12:15:06.056Z,22.10
2024-04-01T12:16:08.288Z,21.78
2024-04-01T12:17:09.130Z,19.98
2024-04-01T12:18:16.210Z,21.32
2024-04-01T12:19:17.410Z,21.80
2024-04-01T12:20:18.489Z,20.87
2024-04-01T12:21:20.856Z,20.28
2024-04-01T12:22:21.800Z,20.50
2024-04-01T12:23:23.724Z,21.35
2024-04-01T12:24:24.555Z,19.90
2024-04-01T12:25:25.408Z,20.65
2024-04-01T12:26:36.255Z,20.90
2024-04-01T12:27:37.724Z,20.32
2024-04-01T12:28:38.697Z,21.18
2024-04-01T12:29:39.547Z,20.52
2024-04-01T12:30:40.893Z,20.58
2024-04-01T12:32:08.110Z,18.97
2024-04-01T12:33:18.357Z,20.32
2024-04-01T12:34:25.641Z,20.67
2024-04-01T12:35:26.474Z,21.55
2024-04-01T12:36:27.310Z,22.60
2024-04-01T12:37:28.162Z,19.68
2024-04-01T12:38:33.413Z,21.53
2024-04-01T12:39:42.309Z,20.43
2024-04-01T12:40:46.242Z,20.88
2024-04-01T12:41:50.048Z,19.52
2024-04-01T12:42:51.462Z,21.28
2024-04-01T12:43:52.317Z,22.28
2024-04-01T12:44:53.234Z,21.38
2024-04-01T12:45:54.301Z,21.12
2024-04-01T12:46:55.131Z,21.73
2024-04-01T12:47:55.984Z,21.22
2024-04-01T12:48:57.086Z,20.92
2024-04-01T12:50:01.172Z,20.58
2024-04-01T12:51:02.662Z,20.42
2024-04-01T12:52:04.087Z,20.15
2024-04-01T12:53:14.396Z,21.70
2024-04-01T12:54:23.576Z,20.95
2024-04-01T12:55:26.313Z,22.60
2024-04-01T12:56:41.976Z,20.80
2024-04-01T12:58:03.523Z,20.32
2024-04-01T12:59:16.113Z,21.53
2024-04-01T13:00:23.236Z,21.47
2024-04-01T13:01:53.996Z,21.88
2024-04-01T13:03:21.488Z,20.82
2024-04-01T13:04:22.251Z,21.77
2024-04-01T13:05:26.887Z,22.65
2024-04-01T13:06:48.424Z,20.50
2024-04-01T13:08:28.499Z,22.18
2024-04-01T13:09:58.855Z,20.53
2024-04-01T13:11:26.901Z,22.13
2024-04-01T13:12:45.598Z,20.93
2024-04-01T13:14:08.535Z,19.65
2024-04-01T13:15:33.593Z,22.58
2024-04-01T13:17:08.228Z,22.02
2024-04-01T13:18:12.804Z,21.02
2024-04-01T13:19:24.720Z,19.47
2024-04-01T13:20:34.372Z,18.95
2024-04-01T13:21:47.193Z,20.08
2024-04-01T13:23:23.572Z,19.93
2024-04-01T13:24:27.552Z,19.98
2024-04-01T13:25:44.917Z,19.38
2024-04-01T13:26:51.302Z,19.55
2024-04-01T13:28:10.749Z,21.35
2024-04-01T13:29:16.013Z,17.95
2024-04-01T13:30:34.578Z,18.40
2024-04-01T13:32:03.136Z,19.80
2024-04-01T13:33:04.045Z,19.65
2024-04-01T13:34:07.570Z,18.92
2024-04-01T13:35:41.755Z,19.47
2024-04-01T13:36:54.364Z,19.60
2024-04-01T13:38:18.114Z,21.35
2024-04-01T13:39:24.096Z,18.75
2024-04-01T13:40:42.846Z,18.57
2024-04-01T13:42:15.635Z,19.17
2024-04-01T13:43:16.392Z,17.73
2024-04-01T13:44:38.284Z,18.13
2024-04-01T13:46:04.829Z,18.22
2024-04-01T13:47:37.732Z,18.25
2024-04-01T13:49:05.960Z,18.30
2024-04-01T13:50:47.905Z,17.03
2024-04-01T13:51:54.524Z,17.33